sensor_id;sensor_type;location;lat;lon;timestamp;pressure;altitude;pressure_sealevel;temperature;humidity
10064;BME280;5071;52.360;13.134;2022-09-21T00:01:58;102009.63;;;4.91;100.00
10064;BME280;5071;52.360;13.134;2022-09-21T00:07:00;102000.44;;;4.78;100.00
10064;BME280;5071;52.360;13.134;2022-09-21T00:12:04;102011.25;;;4.87;100.00
10064;BME280;5071;52.360;13.134;2022-09-21T00:17:06;102011.53;;;4.67;100.00
10064;BME280;5071;52.360;13.134;2022-09-21T00:22:08;102018.47;;;4.65;100.00
10064;BME280;5071;52.360;13.134;2022-09-21T00:27:12;102014.19;;;4.69;100.00
10064;BME280;5071;52.360;13.134;2022-09-21T00:32:14;102021.81;;;4.60;100.00
10064;BME280;5071;52.360;13.134;2022-09-21T00:37:16;102018.00;;;4.52;100.00
10064;BME280;5071;52.360;13.134;2022-09-21T00:42:21;102022.19;;;4.45;100.00
10064;BME280;5071;52.360;13.134;2022-09-21T00:47:27;102020.19;;;4.65;100.00
10064;BME280;5071;52.360;13.134;2022-09-21T00:52:33;102024.81;;;4.72;100.00
10064;BME280;5071;52.360;13.134;2022-09-21T00:57:39;102022.38;;;4.51;100.00
10064;BME280;5071;52.360;13.134;2022-09-21T01:02:42;102030.28;;;4.51;100.00
10064;BME280;5071;52.360;13.134;2022-09-21T01:07:46;102024.72;;;4.42;100.00
10064;BME280;5071;52.360;13.134;2022-09-21T01:12:59;102034.78;;;4.55;100.00
10064;BME280;5071;52.360;13.134;2022-09-21T01:18:11;102034.16;;;4.37;100.00
10064;BME280;5071;52.360;13.134;2022-09-21T01:23:46;102031.72;;;4.41;100.00
10064;BME280;5071;52.360;13.134;2022-09-21T01:29:08;102040.16;;;4.58;100.00
10064;BME280;5071;52.360;13.134;2022-09-21T01:34:22;102034.78;;;4.29;100.00
10064;BME280;5071;52.360;13.134;2022-09-21T01:39:28;102043.94;;;4.41;100.00
10064;BME280;5071;52.360;13.134;2022-09-21T01:44:33;102043.53;;;4.28;100.00
10064;BME280;5071;52.360;13.134;2022-09-21T01:49:39;102048.78;;;4.28;100.00
10064;BME280;5071;52.360;13.134;2022-09-21T01:54:45;102038.28;;;4.28;100.00
10064;BME280;5071;52.360;13.134;2022-09-21T01:59:51;102045.09;;;4.23;100.00
10064;BME280;5071;52.360;13.134;2022-09-21T02:04:54;102044.59;;;4.34;100.00
10064;BME280;5071;52.360;13.134;2022-09-21T02:09:57;102057.28;;;4.21;100.00
10064;BME280;5071;52.360;13.134;2022-09-21T02:15:01;102051.91;;;4.18;100.00
10064;BME280;5071;52.360;13.134;2022-09-21T02:20:16;102050.56;;;4.04;100.00
10064;BME280;5071;52.360;13.134;2022-09-21T02:25:27;102053.63;;;3.92;100.00
10064;BME280;5071;52.360;13.134;2022-09-21T02:30:34;102059.88;;;3.96;100.00
10064;BME280;5071;52.360;13.134;2022-09-21T02:35:39;102060.84;;;3.98;100.00
10064;BME280;5071;52.360;13.134;2022-09-21T02:40:50;102053.06;;;4.01;100.00
10064;BME280;5071;52.360;13.134;2022-09-21T02:45:58;102057.88;;;3.88;100.00
10064;BME280;5071;52.360;13.134;2022-09-21T02:51:03;102064.72;;;3.83;100.00
10064;BME280;5071;52.360;13.134;2022-09-21T02:56:08;102066.53;;;3.86;100.00
10064;BME280;5071;52.360;13.134;2022-09-21T03:01:14;102063.13;;;3.88;100.00
10064;BME280;5071;52.360;13.134;2022-09-21T03:06:17;102066.94;;;3.97;100.00
10064;BME280;5071;52.360;13.134;2022-09-21T03:11:19;102077.59;;;3.77;100.00
10064;BME280;5071;52.360;13.134;2022-09-21T03:16:22;102084.03;;;3.85;100.00
10064;BME280;5071;52.360;13.134;2022-09-21T03:21:24;102081.69;;;3.69;100.00
10064;BME280;5071;52.360;13.134;2022-09-21T03:26:26;102084.66;;;3.78;100.00
10064;BME280;5071;52.360;13.134;2022-09-21T03:31:29;102088.69;;;3.93;100.00
10064;BME280;5071;52.360;13.134;2022-09-21T03:36:31;102080.22;;;3.77;100.00
10064;BME280;5071;52.360;13.134;2022-09-21T03:41:32;102086.81;;;3.66;100.00
10064;BME280;5071;52.360;13.134;2022-09-21T03:46:35;102086.81;;;3.66;100.00
10064;BME280;5071;52.360;13.134;2022-09-21T03:51:38;102093.03;;;3.68;100.00
10064;BME280;5071;52.360;13.134;2022-09-21T03:56:40;102091.75;;;3.57;100.00
10064;BME280;5071;52.360;13.134;2022-09-21T04:01:43;102093.44;;;3.56;100.00
10064;BME280;5071;52.360;13.134;2022-09-21T04:06:45;102099.47;;;3.76;100.00
10064;BME280;5071;52.360;13.134;2022-09-21T04:11:47;102094.66;;;3.88;100.00
10064;BME280;5071;52.360;13.134;2022-09-21T04:16:50;102100.06;;;3.69;100.00
10064;BME280;5071;52.360;13.134;2022-09-21T04:21:52;102101.28;;;3.79;100.00
10064;BME280;5071;52.360;13.134;2022-09-21T04:26:54;102102.84;;;3.49;100.00
10064;BME280;5071;52.360;13.134;2022-09-21T04:31:58;102103.47;;;3.66;100.00
10064;BME280;5071;52.360;13.134;2022-09-21T04:37:00;102102.56;;;3.66;100.00
10064;BME280;5071;52.360;13.134;2022-09-21T04:42:02;102101.09;;;3.50;100.00
10064;BME280;5071;52.360;13.134;2022-09-21T04:47:05;102103.44;;;3.42;100.00
10064;BME280;5071;52.360;13.134;2022-09-21T04:52:07;102107.22;;;3.50;100.00
10064;BME280;5071;52.360;13.134;2022-09-21T04:57:09;102109.47;;;3.64;100.00
10064;BME280;5071;52.360;13.134;2022-09-21T05:02:12;102109.91;;;3.52;100.00
10064;BME280;5071;52.360;13.134;2022-09-21T05:07:14;102118.66;;;3.51;100.00
10064;BME280;5071;52.360;13.134;2022-09-21T05:12:16;102121.78;;;3.65;100.00
10064;BME280;5071;52.360;13.134;2022-09-21T05:17:19;102128.81;;;3.66;100.00
10064;BME280;5071;52.360;13.134;2022-09-21T05:22:21;102134.19;;;3.69;100.00
10064;BME280;5071;52.360;13.134;2022-09-21T05:27:23;102147.84;;;3.83;100.00
10064;BME280;5071;52.360;13.134;2022-09-21T05:32:29;102140.28;;;3.91;100.00
10064;BME280;5071;52.360;13.134;2022-09-21T05:37:44;102150.06;;;3.95;100.00
10064;BME280;5071;52.360;13.134;2022-09-21T05:42:48;102152.16;;;4.05;100.00
10064;BME280;5071;52.360;13.134;2022-09-21T05:48:03;102141.28;;;4.18;100.00
10064;BME280;5071;52.360;13.134;2022-09-21T05:53:23;102155.81;;;4.33;100.00
10064;BME280;5071;52.360;13.134;2022-09-21T05:58:34;102154.84;;;4.55;100.00
10064;BME280;5071;52.360;13.134;2022-09-21T06:03:39;102154.59;;;4.73;100.00
10064;BME280;5071;52.360;13.134;2022-09-21T06:08:42;102166.78;;;4.96;100.00
10064;BME280;5071;52.360;13.134;2022-09-21T06:13:44;102164.31;;;5.28;100.00
10064;BME280;5071;52.360;13.134;2022-09-21T06:18:48;102160.88;;;5.87;100.00
10064;BME280;5071;52.360;13.134;2022-09-21T06:23:49;102159.16;;;6.82;100.00
10064;BME280;5071;52.360;13.134;2022-09-21T06:28:51;102158.41;;;7.61;100.00
10064;BME280;5071;52.360;13.134;2022-09-21T06:33:54;102170.53;;;8.35;100.00
10064;BME280;5071;52.360;13.134;2022-09-21T06:38:56;102168.88;;;8.40;100.00
10064;BME280;5071;52.360;13.134;2022-09-21T06:43:58;102167.00;;;8.80;100.00
10064;BME280;5071;52.360;13.134;2022-09-21T06:49:01;102164.06;;;9.13;100.00
10064;BME280;5071;52.360;13.134;2022-09-21T06:54:03;102160.59;;;9.16;100.00
10064;BME280;5071;52.360;13.134;2022-09-21T06:59:05;102166.97;;;9.27;100.00
10064;BME280;5071;52.360;13.134;2022-09-21T07:04:08;102169.06;;;9.50;100.00
10064;BME280;5071;52.360;13.134;2022-09-21T07:09:10;102179.59;;;9.45;98.40
10064;BME280;5071;52.360;13.134;2022-09-21T07:14:32;102186.28;;;9.81;98.17
10064;BME280;5071;52.360;13.134;2022-09-21T07:19:35;102186.66;;;10.07;95.55
10064;BME280;5071;52.360;13.134;2022-09-21T07:24:37;102200.88;;;10.12;93.64
10064;BME280;5071;52.360;13.134;2022-09-21T07:29:39;102198.09;;;10.03;92.27
10064;BME280;5071;52.360;13.134;2022-09-21T07:34:42;102208.00;;;10.17;91.40
10064;BME280;5071;52.360;13.134;2022-09-21T07:39:43;102203.47;;;10.09;91.64
10064;BME280;5071;52.360;13.134;2022-09-21T07:44:45;102207.19;;;10.22;92.02
10064;BME280;5071;52.360;13.134;2022-09-21T07:49:48;102214.19;;;10.16;90.40
10064;BME280;5071;52.360;13.134;2022-09-21T07:54:50;102206.63;;;9.81;92.03
10064;BME280;5071;52.360;13.134;2022-09-21T07:59:52;102207.47;;;9.77;93.89
10064;BME280;5071;52.360;13.134;2022-09-21T08:04:56;102211.22;;;9.94;94.03
10064;BME280;5071;52.360;13.134;2022-09-21T08:09:57;102209.13;;;10.33;94.17
10064;BME280;5071;52.360;13.134;2022-09-21T08:14:59;102209.22;;;10.43;92.81
10064;BME280;5071;52.360;13.134;2022-09-21T08:20:02;102208.13;;;11.07;89.77
10064;BME280;5071;52.360;13.134;2022-09-21T08:25:04;102208.63;;;11.68;86.97
10064;BME280;5071;52.360;13.134;2022-09-21T08:30:07;102212.19;;;11.67;86.86
10064;BME280;5071;52.360;13.134;2022-09-21T08:35:10;102213.97;;;11.70;86.81
10064;BME280;5071;52.360;13.134;2022-09-21T08:40:12;102220.91;;;11.51;88.20
10064;BME280;5071;52.360;13.134;2022-09-21T08:45:16;102213.69;;;11.35;89.14
10064;BME280;5071;52.360;13.134;2022-09-21T08:50:25;102221.97;;;11.73;89.15
10064;BME280;5071;52.360;13.134;2022-09-21T08:55:30;102219.66;;;12.30;88.62
10064;BME280;5071;52.360;13.134;2022-09-21T09:00:34;102219.78;;;12.70;86.27
10064;BME280;5071;52.360;13.134;2022-09-21T09:05:44;102219.84;;;13.01;86.73
10064;BME280;5071;52.360;13.134;2022-09-21T09:10:55;102206.50;;;13.12;84.24
10064;BME280;5071;52.360;13.134;2022-09-21T09:16:07;102210.97;;;13.54;85.45
10064;BME280;5071;52.360;13.134;2022-09-21T09:21:20;102216.19;;;14.14;81.00
10064;BME280;5071;52.360;13.134;2022-09-21T09:26:35;102211.69;;;14.30;79.57
10064;BME280;5071;52.360;13.134;2022-09-21T09:31:39;102211.47;;;15.86;76.91
10064;BME280;5071;52.360;13.134;2022-09-21T09:36:45;102216.44;;;19.53;59.04
10064;BME280;5071;52.360;13.134;2022-09-21T09:42:10;102210.38;;;21.28;54.12
10064;BME280;5071;52.360;13.134;2022-09-21T09:47:25;102229.03;;;22.38;48.45
10064;BME280;5071;52.360;13.134;2022-09-21T09:52:33;102221.44;;;25.69;43.00
10064;BME280;5071;52.360;13.134;2022-09-21T09:57:36;102220.72;;;24.75;42.83
10064;BME280;5071;52.360;13.134;2022-09-21T10:02:45;102211.59;;;25.49;42.96
10064;BME280;5071;52.360;13.134;2022-09-21T10:07:49;102211.88;;;27.25;38.09
10064;BME280;5071;52.360;13.134;2022-09-21T10:12:51;102209.50;;;29.22;34.30
10064;BME280;5071;52.360;13.134;2022-09-21T10:18:01;102212.09;;;22.33;45.87
10064;BME280;5071;52.360;13.134;2022-09-21T10:23:11;102199.03;;;22.44;46.46
10064;BME280;5071;52.360;13.134;2022-09-21T10:28:14;102202.66;;;18.55;55.06
10064;BME280;5071;52.360;13.134;2022-09-21T10:33:18;102201.53;;;18.24;59.08
10064;BME280;5071;52.360;13.134;2022-09-21T10:38:25;102195.91;;;17.92;58.23
10064;BME280;5071;52.360;13.134;2022-09-21T10:43:32;102190.56;;;17.42;61.02
10064;BME280;5071;52.360;13.134;2022-09-21T10:48:44;102194.84;;;21.35;50.48
10064;BME280;5071;52.360;13.134;2022-09-21T10:53:47;102186.19;;;23.17;42.92
10064;BME280;5071;52.360;13.134;2022-09-21T10:59:19;102189.13;;;17.69;58.09
10064;BME280;5071;52.360;13.134;2022-09-21T11:04:37;102184.50;;;17.29;60.02
10064;BME280;5071;52.360;13.134;2022-09-21T11:09:46;102180.72;;;17.91;56.98
10064;BME280;5071;52.360;13.134;2022-09-21T11:14:56;102175.78;;;17.15;59.84
10064;BME280;5071;52.360;13.134;2022-09-21T11:20:08;102174.25;;;18.82;58.27
10064;BME280;5071;52.360;13.134;2022-09-21T11:25:25;102179.78;;;17.92;56.66
10064;BME280;5071;52.360;13.134;2022-09-21T11:30:36;102187.03;;;16.84;60.15
10064;BME280;5071;52.360;13.134;2022-09-21T11:35:47;102185.16;;;16.24;61.90
10064;BME280;5071;52.360;13.134;2022-09-21T11:41:05;102176.59;;;15.92;59.59
10064;BME280;5071;52.360;13.134;2022-09-21T11:46:20;102170.56;;;17.05;56.60
10064;BME280;5071;52.360;13.134;2022-09-21T11:51:35;102168.47;;;17.24;57.35
10064;BME280;5071;52.360;13.134;2022-09-21T11:56:47;102164.75;;;17.33;56.03
10064;BME280;5071;52.360;13.134;2022-09-21T12:02:03;102154.41;;;18.06;53.95
10064;BME280;5071;52.360;13.134;2022-09-21T12:07:24;102149.09;;;19.20;52.36
10064;BME280;5071;52.360;13.134;2022-09-21T12:12:35;102146.41;;;20.47;49.06
10064;BME280;5071;52.360;13.134;2022-09-21T12:17:45;102147.00;;;19.97;49.36
10064;BME280;5071;52.360;13.134;2022-09-21T12:22:55;102136.81;;;17.92;53.36
10064;BME280;5071;52.360;13.134;2022-09-21T12:28:02;102136.94;;;17.36;55.32
10064;BME280;5071;52.360;13.134;2022-09-21T12:33:14;102137.66;;;18.36;52.51
10064;BME280;5071;52.360;13.134;2022-09-21T12:38:23;102134.25;;;17.82;51.78
10064;BME280;5071;52.360;13.134;2022-09-21T12:43:34;102135.38;;;17.72;51.68
10064;BME280;5071;52.360;13.134;2022-09-21T12:48:38;102134.66;;;18.50;51.04
10064;BME280;5071;52.360;13.134;2022-09-21T12:53:43;102118.31;;;18.96;50.10
10064;BME280;5071;52.360;13.134;2022-09-21T12:59:11;102129.78;;;17.84;52.27
10064;BME280;5071;52.360;13.134;2022-09-21T13:04:26;102119.69;;;17.51;53.82
10064;BME280;5071;52.360;13.134;2022-09-21T13:09:32;102122.53;;;17.41;54.35
10064;BME280;5071;52.360;13.134;2022-09-21T13:14:42;102126.09;;;16.92;56.11
10064;BME280;5071;52.360;13.134;2022-09-21T13:19:55;102120.34;;;16.58;55.96
10064;BME280;5071;52.360;13.134;2022-09-21T13:25:05;102125.13;;;16.37;56.85
10064;BME280;5071;52.360;13.134;2022-09-21T13:30:28;102121.69;;;16.27;55.63
10064;BME280;5071;52.360;13.134;2022-09-21T13:35:58;102121.53;;;16.37;57.17
10064;BME280;5071;52.360;13.134;2022-09-21T13:41:02;102119.41;;;16.60;56.23
10064;BME280;5071;52.360;13.134;2022-09-21T13:46:06;102117.72;;;16.53;56.92
10064;BME280;5071;52.360;13.134;2022-09-21T13:51:08;102115.56;;;16.18;57.19
10064;BME280;5071;52.360;13.134;2022-09-21T13:56:18;102100.78;;;16.51;55.17
10064;BME280;5071;52.360;13.134;2022-09-21T14:01:29;102095.84;;;16.84;55.14
10064;BME280;5071;52.360;13.134;2022-09-21T14:06:48;102090.19;;;16.43;54.55
10064;BME280;5071;52.360;13.134;2022-09-21T14:11:55;102096.09;;;17.20;53.18
10064;BME280;5071;52.360;13.134;2022-09-21T14:16:59;102091.63;;;18.11;50.34
10064;BME280;5071;52.360;13.134;2022-09-21T14:22:34;102089.06;;;18.45;49.96
10064;BME280;5071;52.360;13.134;2022-09-21T14:27:40;102083.34;;;19.29;46.67
10064;BME280;5071;52.360;13.134;2022-09-21T14:32:52;102089.63;;;19.61;46.87
10064;BME280;5071;52.360;13.134;2022-09-21T14:37:58;102077.38;;;18.83;49.19
10064;BME280;5071;52.360;13.134;2022-09-21T14:43:06;102070.50;;;17.94;49.17
10064;BME280;5071;52.360;13.134;2022-09-21T14:48:15;102067.69;;;17.55;49.74
10064;BME280;5071;52.360;13.134;2022-09-21T14:53:40;102072.31;;;17.93;49.44
10064;BME280;5071;52.360;13.134;2022-09-21T14:58:53;102070.88;;;18.17;49.49
10064;BME280;5071;52.360;13.134;2022-09-21T15:04:12;102063.03;;;18.06;48.95
10064;BME280;5071;52.360;13.134;2022-09-21T15:09:31;102061.31;;;18.04;50.21
10064;BME280;5071;52.360;13.134;2022-09-21T15:14:40;102066.78;;;17.99;49.92
10064;BME280;5071;52.360;13.134;2022-09-21T15:19:47;102060.44;;;17.60;50.19
10064;BME280;5071;52.360;13.134;2022-09-21T15:24:50;102051.16;;;17.31;50.09
10064;BME280;5071;52.360;13.134;2022-09-21T15:29:54;102047.13;;;17.08;50.50
10064;BME280;5071;52.360;13.134;2022-09-21T15:34:59;102048.13;;;17.03;50.32
10064;BME280;5071;52.360;13.134;2022-09-21T15:40:04;102049.25;;;16.89;52.12
10064;BME280;5071;52.360;13.134;2022-09-21T15:45:14;102048.53;;;16.78;51.99
10064;BME280;5071;52.360;13.134;2022-09-21T15:50:18;102055.91;;;16.64;52.44
10064;BME280;5071;52.360;13.134;2022-09-21T15:55:21;102049.97;;;16.45;52.63
10064;BME280;5071;52.360;13.134;2022-09-21T16:00:25;102058.97;;;16.41;52.36
10064;BME280;5071;52.360;13.134;2022-09-21T16:05:29;102051.94;;;16.33;52.82
10064;BME280;5071;52.360;13.134;2022-09-21T16:10:37;102059.13;;;16.30;52.63
10064;BME280;5071;52.360;13.134;2022-09-21T16:15:40;102058.38;;;16.22;53.37
10064;BME280;5071;52.360;13.134;2022-09-21T16:20:45;102064.00;;;16.00;53.95
10064;BME280;5071;52.360;13.134;2022-09-21T16:25:53;102074.09;;;15.81;54.58
10064;BME280;5071;52.360;13.134;2022-09-21T16:30:55;102069.91;;;15.54;55.36
10064;BME280;5071;52.360;13.134;2022-09-21T16:35:59;102070.16;;;15.34;56.54
10064;BME280;5071;52.360;13.134;2022-09-21T16:41:01;102063.25;;;15.10;57.51
10064;BME280;5071;52.360;13.134;2022-09-21T16:46:04;102073.13;;;15.03;57.71
10064;BME280;5071;52.360;13.134;2022-09-21T16:51:10;102069.63;;;14.98;58.14
10064;BME280;5071;52.360;13.134;2022-09-21T16:56:13;102066.31;;;14.65;59.06
10064;BME280;5071;52.360;13.134;2022-09-21T17:01:17;102064.78;;;14.30;60.41
10064;BME280;5071;52.360;13.134;2022-09-21T17:06:21;102071.28;;;13.75;64.12
10064;BME280;5071;52.360;13.134;2022-09-21T17:11:23;102066.09;;;13.21;67.44
10064;BME280;5071;52.360;13.134;2022-09-21T17:16:24;102062.59;;;12.67;70.52
10064;BME280;5071;52.360;13.134;2022-09-21T17:21:27;102081.19;;;12.30;73.08
10064;BME280;5071;52.360;13.134;2022-09-21T17:26:29;102089.97;;;11.95;75.22
10064;BME280;5071;52.360;13.134;2022-09-21T17:31:31;102079.13;;;11.57;77.40
10064;BME280;5071;52.360;13.134;2022-09-21T17:36:35;102092.31;;;11.38;78.89
10064;BME280;5071;52.360;13.134;2022-09-21T17:41:42;102081.56;;;11.18;79.06
10064;BME280;5071;52.360;13.134;2022-09-21T17:46:50;102085.81;;;10.95;80.82
10064;BME280;5071;52.360;13.134;2022-09-21T17:51:56;102092.75;;;10.74;81.94
10064;BME280;5071;52.360;13.134;2022-09-21T17:57:04;102092.53;;;10.49;83.63
10064;BME280;5071;52.360;13.134;2022-09-21T18:02:17;102094.88;;;10.26;84.96
10064;BME280;5071;52.360;13.134;2022-09-21T18:07:22;102097.03;;;10.57;86.43
10064;BME280;5071;52.360;13.134;2022-09-21T18:12:35;102100.88;;;10.93;84.27
10064;BME280;5071;52.360;13.134;2022-09-21T18:17:47;102095.66;;;11.08;82.43
10064;BME280;5071;52.360;13.134;2022-09-21T18:23:00;102102.81;;;11.18;81.56
10064;BME280;5071;52.360;13.134;2022-09-21T18:28:16;102108.88;;;10.99;81.40
10064;BME280;5071;52.360;13.134;2022-09-21T18:33:23;102109.69;;;10.90;81.71
10064;BME280;5071;52.360;13.134;2022-09-21T18:38:35;102114.00;;;10.77;81.89
10064;BME280;5071;52.360;13.134;2022-09-21T18:43:52;102110.41;;;10.70;82.13
10064;BME280;5071;52.360;13.134;2022-09-21T18:49:01;102119.03;;;10.46;82.02
10064;BME280;5071;52.360;13.134;2022-09-21T18:54:11;102124.19;;;10.31;82.98
10064;BME280;5071;52.360;13.134;2022-09-21T18:59:18;102111.56;;;10.15;83.04
10064;BME280;5071;52.360;13.134;2022-09-21T19:04:21;102114.22;;;10.15;83.41
10064;BME280;5071;52.360;13.134;2022-09-21T19:09:34;102122.88;;;9.97;83.34
10064;BME280;5071;52.360;13.134;2022-09-21T19:14:44;102127.91;;;9.77;83.89
10064;BME280;5071;52.360;13.134;2022-09-21T19:19:59;102125.13;;;9.67;84.49
10064;BME280;5071;52.360;13.134;2022-09-21T19:25:10;102124.78;;;9.43;84.53
10064;BME280;5071;52.360;13.134;2022-09-21T19:30:16;102128.88;;;9.22;85.05
10064;BME280;5071;52.360;13.134;2022-09-21T19:35:20;102136.75;;;9.16;85.93
10064;BME280;5071;52.360;13.134;2022-09-21T19:40:25;102127.88;;;9.12;86.20
10064;BME280;5071;52.360;13.134;2022-09-21T19:45:32;102127.53;;;8.92;85.74
10064;BME280;5071;52.360;13.134;2022-09-21T19:50:41;102122.81;;;8.76;86.10
10064;BME280;5071;52.360;13.134;2022-09-21T19:55:45;102134.94;;;8.63;86.85
10064;BME280;5071;52.360;13.134;2022-09-21T20:00:50;102134.81;;;8.55;87.74
10064;BME280;5071;52.360;13.134;2022-09-21T20:05:57;102140.81;;;8.45;87.42
10064;BME280;5071;52.360;13.134;2022-09-21T20:11:09;102127.31;;;8.33;87.56
10064;BME280;5071;52.360;13.134;2022-09-21T20:16:24;102143.25;;;8.36;88.03
10064;BME280;5071;52.360;13.134;2022-09-21T20:21:37;102138.84;;;8.36;88.33
10064;BME280;5071;52.360;13.134;2022-09-21T20:26:41;102137.84;;;8.31;87.93
10064;BME280;5071;52.360;13.134;2022-09-21T20:31:44;102133.03;;;8.10;87.94
10064;BME280;5071;52.360;13.134;2022-09-21T20:36:47;102130.97;;;7.94;89.08
10064;BME280;5071;52.360;13.134;2022-09-21T20:41:50;102132.69;;;7.93;89.62
10064;BME280;5071;52.360;13.134;2022-09-21T20:46:53;102141.34;;;7.85;89.68
10064;BME280;5071;52.360;13.134;2022-09-21T20:51:55;102140.13;;;7.70;90.08
10064;BME280;5071;52.360;13.134;2022-09-21T20:56:58;102133.91;;;7.68;90.64
10064;BME280;5071;52.360;13.134;2022-09-21T21:02:00;102136.22;;;7.53;90.57
10064;BME280;5071;52.360;13.134;2022-09-21T21:07:02;102139.00;;;7.59;91.02
10064;BME280;5071;52.360;13.134;2022-09-21T21:12:05;102140.84;;;7.63;91.28
10064;BME280;5071;52.360;13.134;2022-09-21T21:17:08;102148.94;;;7.71;90.85
10064;BME280;5071;52.360;13.134;2022-09-21T21:22:11;102141.97;;;7.74;91.26
10064;BME280;5071;52.360;13.134;2022-09-21T21:27:16;102148.31;;;7.83;90.61
10064;BME280;5071;52.360;13.134;2022-09-21T21:32:20;102154.41;;;7.78;90.71
10064;BME280;5071;52.360;13.134;2022-09-21T21:37:23;102149.97;;;7.77;91.28
10064;BME280;5071;52.360;13.134;2022-09-21T21:42:27;102151.72;;;7.75;91.22
10064;BME280;5071;52.360;13.134;2022-09-21T21:47:30;102145.28;;;7.66;91.67
10064;BME280;5071;52.360;13.134;2022-09-21T21:52:42;102154.41;;;7.78;92.14
10064;BME280;5071;52.360;13.134;2022-09-21T21:57:45;102149.09;;;7.78;91.38
10064;BME280;5071;52.360;13.134;2022-09-21T22:02:47;102150.03;;;7.81;91.80
10064;BME280;5071;52.360;13.134;2022-09-21T22:07:49;102140.56;;;7.92;92.63
10064;BME280;5071;52.360;13.134;2022-09-21T22:12:52;102140.66;;;7.95;92.04
10064;BME280;5071;52.360;13.134;2022-09-21T22:17:55;102140.78;;;8.00;92.12
10064;BME280;5071;52.360;13.134;2022-09-21T22:22:57;102141.84;;;8.09;92.85
10064;BME280;5071;52.360;13.134;2022-09-21T22:28:00;102138.47;;;8.18;92.70
10064;BME280;5071;52.360;13.134;2022-09-21T22:33:02;102135.97;;;8.24;92.35
10064;BME280;5071;52.360;13.134;2022-09-21T22:38:04;102142.16;;;8.25;92.38
10064;BME280;5071;52.360;13.134;2022-09-21T22:43:07;102143.16;;;8.33;92.28
10064;BME280;5071;52.360;13.134;2022-09-21T22:48:09;102135.31;;;8.36;92.39
10064;BME280;5071;52.360;13.134;2022-09-21T22:53:11;102142.28;;;8.32;92.02
10064;BME280;5071;52.360;13.134;2022-09-21T22:58:15;102139.53;;;8.26;92.07
10064;BME280;5071;52.360;13.134;2022-09-21T23:03:17;102133.41;;;8.29;92.48
10064;BME280;5071;52.360;13.134;2022-09-21T23:08:19;102132.59;;;8.33;92.63
10064;BME280;5071;52.360;13.134;2022-09-21T23:13:22;102137.88;;;8.33;92.40
10064;BME280;5071;52.360;13.134;2022-09-21T23:18:24;102130.94;;;8.38;92.92
10064;BME280;5071;52.360;13.134;2022-09-21T23:23:27;102125.53;;;8.32;92.75
10064;BME280;5071;52.360;13.134;2022-09-21T23:28:31;102126.38;;;8.31;93.08
10064;BME280;5071;52.360;13.134;2022-09-21T23:33:35;102133.47;;;8.32;93.30
10064;BME280;5071;52.360;13.134;2022-09-21T23:38:38;102135.97;;;8.26;93.16
10064;BME280;5071;52.360;13.134;2022-09-21T23:43:42;102136.16;;;8.33;93.75
10064;BME280;5071;52.360;13.134;2022-09-21T23:48:45;102138.56;;;8.23;93.52
10064;BME280;5071;52.360;13.134;2022-09-21T23:53:48;102130.59;;;8.21;94.13
10064;BME280;5071;52.360;13.134;2022-09-21T23:58:52;102133.09;;;8.13;93.88
